KHVE/HVE METAR and TAF weather

Enter ICAO airport designator
Station Type Date Time Source
KHVE METAR 2018/12/13 22:55 UTC NOAA

KHVE 132255Z AUTO 01005KT 10SM CLR 02/M08 A3044 RMK AO2


Station Type Date Time Source
KHVE Decoded METAR 2018/12/13 22:55 UTC NOAA

Station name not available
Dec 13, 2018 - 05:55 PM EST / 2018.12.13 2255 UTC
Wind: from the N (010 degrees) at 6 MPH (5 KT):0
Visibility: 10 mile(s):0
Sky conditions: clear
Temperature: 35 F (2 C)
Windchill: 30 F (-1 C):1
Dew Point: 17 F (-8 C)
Relative Humidity: 47%
Pressure (altimeter): 30.44 in. Hg (1030 hPa)
ob: KHVE 132255Z AUTO 01005KT 10SM CLR 02/M08 A3044 RMK AO2
cycle: 23

Station Type Date Time Source
KHVE TAF UTC NOAA

Error!


Example: see airport list